Time;durP1;ratioP1;P1;durP2;ratioP2;P2;SDS_P1;SDS_P2;PMS_P1;PMS_P2;Temp;Humidity;BMP_temperature;BMP_pressure;BME280_temperature;BME280_humidity;BME280_pressure;Samples;Min_cycle;Max_cycle;Signal;HPM_P1;HPM_P2
2022/10/16 00:01:46;;;;;;;10.33;9.23;;;;;;;14.16;97.18;101009.66;4954362;28;20308;-74
2022/10/16 00:04:12;;;;;;;9.73;8.47;;;;;;;14.12;97.07;101014.75;4950296;28;20197;-74
2022/10/16 00:06:38;;;;;;;9.67;8.77;;;;;;;14.09;97.53;101012.16;4954148;28;20197;-75
2022/10/16 00:09:05;;;;;;;10.57;9.47;;;;;;;14.02;97.45;101013.84;4954401;28;20193;-74
2022/10/16 00:11:33;;;;;;;9.47;8.57;;;;;;;13.99;97.66;101018.94;4950634;29;20367;-74
2022/10/16 00:14:01;;;;;;;11.03;9.80;;;;;;;13.97;97.40;101014.63;4954233;28;20205;-74
2022/10/16 00:16:28;;;;;;;11.93;9.17;;;;;;;13.93;97.70;101018.03;4949166;29;20193;-75
2022/10/16 00:18:54;;;;;;;10.93;9.17;;;;;;;13.92;97.99;101016.31;4952707;28;20239;-74
2022/10/16 00:21:22;;;;;;;11.23;8.90;;;;;;;13.90;97.95;101028.31;4953787;28;20209;-74
2022/10/16 00:23:51;;;;;;;11.77;9.20;;;;;;;13.86;98.16;101027.41;4952949;29;20199;-74
2022/10/16 00:26:17;;;;;;;11.57;8.57;;;;;;;13.86;98.13;101023.97;4952638;28;20248;-74
2022/10/16 00:28:46;;;;;;;11.27;8.80;;;;;;;13.82;98.31;101028.25;4953951;28;20197;-74
2022/10/16 00:31:12;;;;;;;9.67;8.67;;;;;;;13.79;98.37;101028.22;4953631;28;20601;-74
2022/10/16 00:33:40;;;;;;;10.33;9.23;;;;;;;13.78;98.23;101034.22;4949265;28;20193;-74
2022/10/16 00:36:07;;;;;;;9.50;8.50;;;;;;;13.75;98.49;101035.88;4946240;29;20305;-74
2022/10/16 00:38:32;;;;;;;10.67;9.60;;;;;;;13.74;98.39;101036.72;4953489;29;20201;-74
2022/10/16 00:40:58;;;;;;;11.87;9.23;;;;;;;13.68;98.05;101040.09;4952372;29;20220;-74
2022/10/16 00:43:38;;;;;;;12.50;9.50;;;;;;;13.65;98.87;101042.66;4952408;29;20205;-74
2022/10/16 00:46:10;;;;;;;10.10;9.10;;;;;;;13.63;98.33;101046.06;4951847;29;20239;-74
2022/10/16 00:48:36;;;;;;;9.50;8.57;;;;;;;13.60;98.71;101038.31;4965338;28;20201;-74
2022/10/16 00:51:01;;;;;;;10.33;8.63;;;;;;;13.59;98.72;101039.16;4947350;29;20221;-74
2022/10/16 00:53:27;;;;;;;9.97;8.00;;;;;;;13.58;98.36;101032.28;4952393;28;20204;-75
2022/10/16 00:55:53;;;;;;;10.50;8.33;;;;;;;13.55;99.52;101047.69;4949908;28;20193;-74
2022/10/16 00:58:19;;;;;;;8.90;7.97;;;;;;;13.51;99.54;101035.63;4952231;29;20256;-75
2022/10/16 01:00:44;;;;;;;9.10;8.20;;;;;;;13.49;98.91;101048.47;4951977;29;20209;-74
2022/10/16 01:03:28;;;;;;;8.27;7.43;;;;;;;13.49;98.89;101045.06;4953383;28;20701;-75
2022/10/16 01:06:19;;;;;;;14.20;8.20;;;;;;;13.44;99.15;101045.00;4950182;29;20196;-74
2022/10/16 01:08:54;;;;;;;10.23;8.43;;;;;;;13.43;99.66;101050.13;4948326;28;20655;-74
2022/10/16 01:11:30;;;;;;;10.97;8.60;;;;;;;13.39;99.04;101044.09;4950832;28;20304;-74
2022/10/16 01:14:00;;;;;;;9.93;7.73;;;;;;;13.37;99.55;101048.34;4949732;29;20247;-74
2022/10/16 01:16:38;;;;;;;11.40;8.57;;;;;;;13.36;99.90;101058.63;4952156;29;20569;-74
2022/10/16 01:19:26;;;;;;;9.57;8.50;;;;;;;13.34;100.00;101068.91;4951900;29;20200;-74
2022/10/16 01:21:53;;;;;;;9.23;7.80;;;;;;;13.32;100.00;101060.31;4945400;29;20257;-74
2022/10/16 01:24:32;;;;;;;10.97;8.20;;;;;;;13.28;100.00;101057.66;4952087;28;20264;-74
2022/10/16 01:27:25;;;;;;;11.23;7.73;;;;;;;13.23;99.85;101064.47;4948229;29;20226;-75
2022/10/16 01:29:59;;;;;;;9.97;7.03;;;;;;;13.20;100.00;101057.56;4945497;29;20208;-74
2022/10/16 01:33:00;;;;;;;8.43;7.30;;;;;;;13.19;99.84;101066.16;4949332;29;20188;-75
2022/10/16 01:35:43;;;;;;;7.80;6.67;;;;;;;13.20;99.46;101067.88;4944644;28;20201;-74
2022/10/16 01:38:26;;;;;;;7.63;6.47;;;;;;;13.18;99.59;101067.00;4950356;29;20185;-74
2022/10/16 01:40:59;;;;;;;8.63;6.73;;;;;;;13.15;99.89;101061.81;4949110;28;20220;-74
2022/10/16 01:43:40;;;;;;;7.60;6.03;;;;;;;13.13;99.36;101062.63;4953391;28;20276;-74
2022/10/16 01:46:06;;;;;;;7.90;6.13;;;;;;;13.11;99.02;101066.91;4942473;29;20287;-74
2022/10/16 01:48:33;;;;;;;8.17;6.17;;;;;;;13.04;99.41;101063.38;4949947;29;20217;-74
2022/10/16 01:51:11;;;;;;;7.00;5.77;;;;;;;13.05;98.95;101077.97;4952159;28;20849;-74
2022/10/16 01:53:38;;;;;;;6.20;5.60;;;;;;;13.03;99.00;101073.66;4949041;29;20196;-74
2022/10/16 01:56:09;;;;;;;7.03;5.43;;;;;;;13.00;98.97;101073.59;4949517;28;20181;-74
2022/10/16 01:58:40;;;;;;;6.90;6.20;;;;;;;12.98;98.75;101071.00;4946225;28;20719;-74
2022/10/16 02:01:09;;;;;;;8.83;5.50;;;;;;;12.98;98.71;101078.72;4951622;29;20213;-74
2022/10/16 02:03:37;;;;;;;7.83;6.07;;;;;;;12.95;99.31;101074.34;4952267;28;20236;-74
2022/10/16 02:06:03;;;;;;;6.77;5.20;;;;;;;12.94;98.97;101075.22;4951633;28;20201;-74
2022/10/16 02:08:30;;;;;;;5.80;4.90;;;;;;;12.95;98.82;101071.78;4947478;28;20678;-74
2022/10/16 02:11:01;;;;;;;4.97;4.47;;;;;;;12.97;99.04;101074.41;4950999;28;20240;-74
2022/10/16 02:13:45;;;;;;;7.27;4.90;;;;;;;12.94;98.65;101079.47;4947577;28;20193;-74
2022/10/16 02:16:12;;;;;;;6.37;4.93;;;;;;;12.93;98.33;101075.19;4949135;29;20571;-74
2022/10/16 02:18:38;;;;;;;5.17;3.97;;;;;;;12.92;98.35;101076.03;4950864;29;20185;-74
2022/10/16 02:21:22;;;;;;;7.70;4.87;;;;;;;12.91;98.54;101077.72;4951555;28;20225;-74
2022/10/16 02:24:05;;;;;;;6.63;4.37;;;;;;;12.90;98.73;101083.72;4949174;28;20242;-74
2022/10/16 02:26:40;;;;;;;7.13;4.17;;;;;;;12.88;98.76;101079.41;4949171;29;20228;-74
2022/10/16 02:29:10;;;;;;;4.73;4.10;;;;;;;12.86;98.57;101081.94;4949648;28;20193;-74
2022/10/16 02:31:42;;;;;;;6.90;4.20;;;;;;;12.84;97.88;101075.06;4948509;28;20186;-74
2022/10/16 02:34:11;;;;;;;5.47;3.77;;;;;;;12.82;97.54;101079.31;4948272;29;20289;-74
2022/10/16 02:36:39;;;;;;;3.97;3.57;;;;;;;12.81;97.76;101077.59;4952165;28;20682;-74
2022/10/16 02:39:05;;;;;;;5.97;3.60;;;;;;;12.81;97.63;101075.03;4950154;28;20188;-74
2022/10/16 02:41:31;;;;;;;4.93;3.13;;;;;;;12.79;97.12;101086.97;4951835;28;20572;-74
2022/10/16 02:43:57;;;;;;;6.20;3.40;;;;;;;12.76;97.36;101081.81;4950339;28;20199;-74
2022/10/16 02:46:22;;;;;;;3.70;3.17;;;;;;;12.74;96.93;101068.06;4951593;28;20204;-73
2022/10/16 02:48:48;;;;;;;5.23;2.90;;;;;;;12.74;97.17;101080.91;4951588;28;20193;-74
2022/10/16 02:51:13;;;;;;;5.03;2.77;;;;;;;12.73;96.99;101080.03;4942304;29;20215;-74
2022/10/16 02:53:39;;;;;;;6.20;2.60;;;;;;;12.75;96.42;101083.50;4946862;29;20233;-74
2022/10/16 02:56:04;;;;;;;3.47;2.67;;;;;;;12.73;96.26;101071.47;4951539;28;20189;-74
2022/10/16 02:58:29;;;;;;;5.47;2.40;;;;;;;12.71;96.37;101070.59;4950949;28;20698;-74
2022/10/16 03:00:55;;;;;;;4.67;2.57;;;;;;;12.69;95.96;101074.84;4943364;29;20209;-74
2022/10/16 03:03:21;;;;;;;3.80;2.30;;;;;;;12.64;96.32;101069.66;4950750;29;21039;-74
2022/10/16 03:05:46;;;;;;;5.20;2.90;;;;;;;12.61;95.75;101081.56;4950638;28;20292;-74
2022/10/16 03:08:12;;;;;;;4.23;2.70;;;;;;;12.57;96.25;101078.09;4948947;29;20193;-74
2022/10/16 03:10:38;;;;;;;3.83;2.70;;;;;;;12.56;95.93;101068.69;4950058;29;20209;-74
2022/10/16 03:13:04;;;;;;;6.60;2.70;;;;;;;12.51;95.99;101070.31;4950227;29;20693;-74
2022/10/16 03:15:30;;;;;;;5.30;2.30;;;;;;;12.51;96.24;101064.31;4966159;28;20185;-74
2022/10/16 03:17:58;;;;;;;5.83;2.80;;;;;;;12.48;95.88;101072.81;4948979;28;20740;-74
2022/10/16 03:20:24;;;;;;;4.70;2.60;;;;;;;12.47;96.01;101073.66;4949790;28;20224;-74
2022/10/16 03:22:50;;;;;;;3.60;2.80;;;;;;;12.47;96.27;101063.41;4950749;28;20304;-74
2022/10/16 03:25:15;;;;;;;4.53;2.37;;;;;;;12.45;96.23;101070.19;4950266;28;20918;-74
2022/10/16 03:27:41;;;;;;;2.90;2.23;;;;;;;12.39;96.15;101076.97;4950495;28;20686;-74
2022/10/16 03:30:07;;;;;;;2.93;2.13;;;;;;;12.38;96.49;101078.66;4949407;28;20325;-74
2022/10/16 03:32:32;;;;;;;5.13;2.47;;;;;;;12.35;96.32;101081.16;4951135;28;20230;-73
2022/10/16 03:34:58;;;;;;;5.27;2.60;;;;;;;12.36;96.57;101082.06;4952391;28;20216;-74
2022/10/16 03:37:23;;;;;;;5.00;2.30;;;;;;;12.31;96.42;101076.81;4954366;28;20244;-74
2022/10/16 03:39:49;;;;;;;3.43;2.20;;;;;;;12.32;96.68;101083.72;4953055;28;20680;-74
2022/10/16 03:42:14;;;;;;;6.27;2.23;;;;;;;12.29;96.15;101077.63;4944176;29;20680;-74
2022/10/16 03:44:40;;;;;;;3.10;2.43;;;;;;;12.27;96.59;101074.19;4953428;29;20593;-74
2022/10/16 03:47:05;;;;;;;3.83;1.97;;;;;;;12.26;96.19;101085.31;4954618;28;20540;-74
2022/10/16 03:49:30;;;;;;;6.43;2.17;;;;;;;12.23;96.55;101088.69;4969494;28;20243;-74
2022/10/16 03:51:56;;;;;;;8.33;2.93;;;;;;;12.19;96.52;101094.63;4954674;28;20558;-74
2022/10/16 03:54:22;;;;;;;4.57;2.63;;;;;;;12.18;96.25;101081.75;4953459;28;20272;-74
2022/10/16 03:56:48;;;;;;;3.37;2.37;;;;;;;12.11;96.60;101083.34;4952120;28;20620;-74
2022/10/16 03:59:13;;;;;;;4.13;2.60;;;;;;;12.12;96.54;101090.19;4949714;29;20204;-74
2022/10/16 04:01:39;;;;;;;6.27;2.63;;;;;;;12.10;96.52;101094.47;4954713;28;20189;-74
2022/10/16 04:04:04;;;;;;;2.83;2.23;;;;;;;12.09;96.92;101086.72;4946757;29;20217;-74
2022/10/16 04:06:30;;;;;;;3.70;2.50;;;;;;;12.07;96.61;101096.13;4954277;29;20236;-74
2022/10/16 04:08:56;;;;;;;3.50;2.53;;;;;;;12.06;96.83;101089.22;4953143;29;20578;-74
2022/10/16 04:11:21;;;;;;;4.67;2.63;;;;;;;12.04;96.85;101090.91;4950816;28;20217;-74
2022/10/16 04:13:47;;;;;;;4.63;2.67;;;;;;;12.02;97.08;101107.97;4950553;28;20197;-74
2022/10/16 04:16:12;;;;;;;4.80;2.00;;;;;;;11.98;97.52;101106.22;4946039;29;20256;-74
2022/10/16 04:18:38;;;;;;;4.30;2.30;;;;;;;11.97;97.61;101117.31;4954334;28;20221;-74
2022/10/16 04:21:04;;;;;;;5.57;2.67;;;;;;;11.93;97.39;101118.94;4948608;28;20324;-74
2022/10/16 04:23:29;;;;;;;4.90;2.47;;;;;;;11.92;97.83;101112.09;4954273;28;20199;-74
2022/10/16 04:25:55;;;;;;;5.47;2.37;;;;;;;11.94;97.92;101123.25;4951978;28;20579;-74
2022/10/16 04:28:20;;;;;;;4.17;2.20;;;;;;;11.96;97.74;101125.84;4953260;29;20200;-72
2022/10/16 04:30:46;;;;;;;3.57;2.40;;;;;;;11.92;97.42;101121.47;4952800;28;20213;-73
2022/10/16 04:33:12;;;;;;;5.50;2.70;;;;;;;11.88;97.73;101122.25;4947696;29;20185;-74
2022/10/16 04:35:38;;;;;;;4.83;2.60;;;;;;;11.88;97.49;101127.41;4953945;28;20192;-74
2022/10/16 04:38:03;;;;;;;3.50;2.40;;;;;;;11.88;97.38;101127.41;4953875;28;20567;-74
2022/10/16 04:40:28;;;;;;;2.83;2.20;;;;;;;11.86;97.45;101142.78;4953634;28;20244;-74
2022/10/16 04:42:54;;;;;;;4.90;2.30;;;;;;;11.85;97.26;101138.47;4951938;28;20198;-74
2022/10/16 04:45:19;;;;;;;4.87;2.13;;;;;;;11.85;97.48;101148.72;4945325;28;20275;-73
2022/10/16 04:47:45;;;;;;;4.13;2.40;;;;;;;11.81;97.15;101139.28;4949392;29;20197;-74
2022/10/16 04:50:10;;;;;;;4.13;2.50;;;;;;;11.79;97.51;101151.19;4953253;28;20252;-74
2022/10/16 04:52:36;;;;;;;3.40;2.60;;;;;;;11.78;97.63;101146.03;4949881;29;20189;-74
2022/10/16 04:55:02;;;;;;;4.77;2.30;;;;;;;11.76;98.45;101145.13;4953336;28;20193;-74
2022/10/16 04:57:29;;;;;;;4.10;2.30;;;;;;;11.77;98.31;101144.28;4952380;28;20240;-74
2022/10/16 04:59:55;;;;;;;4.43;2.80;;;;;;;11.80;98.40;101144.38;4951471;29;20317;-74
2022/10/16 05:02:21;;;;;;;4.77;2.67;;;;;;;11.81;98.76;101146.09;4950297;28;20276;-74
2022/10/16 05:04:46;;;;;;;4.30;2.77;;;;;;;11.81;98.42;101146.09;4949951;29;20217;-74
2022/10/16 05:07:12;;;;;;;5.73;2.20;;;;;;;11.81;98.49;101144.41;4953335;28;20197;-74
2022/10/16 05:09:37;;;;;;;3.90;2.43;;;;;;;11.80;98.46;101150.34;4951827;29;20244;-74
2022/10/16 05:12:03;;;;;;;4.70;2.90;;;;;;;11.77;98.59;101155.44;4951520;29;20189;-74
2022/10/16 05:14:29;;;;;;;4.87;2.57;;;;;;;11.75;98.74;101159.66;4949816;28;20660;-74
2022/10/16 05:16:54;;;;;;;4.37;2.80;;;;;;;11.73;98.59;101161.34;4949103;29;20845;-74
2022/10/16 05:19:20;;;;;;;5.77;3.20;;;;;;;11.74;98.93;101167.31;4953181;28;20280;-74
2022/10/16 05:21:45;;;;;;;4.93;2.80;;;;;;;11.72;98.89;101166.44;4945189;28;20197;-74
2022/10/16 05:24:11;;;;;;;4.87;2.73;;;;;;;11.70;98.90;101160.44;4952879;28;20670;-73
2022/10/16 05:26:36;;;;;;;5.00;2.67;;;;;;;11.71;99.50;101174.97;4951842;29;20209;-74
2022/10/16 05:29:03;;;;;;;4.90;2.90;;;;;;;11.68;99.35;101169.78;4952222;28;20651;-75
2022/10/16 05:31:28;;;;;;;4.27;3.00;;;;;;;11.69;99.50;101182.63;4952797;28;20193;-74
2022/10/16 05:34:00;;;;;;;8.23;3.27;;;;;;;11.65;99.43;101168.00;4952802;28;20209;-73
2022/10/16 05:36:26;;;;;;;7.40;3.40;;;;;;;11.63;99.59;101177.38;4952768;28;20213;-74
2022/10/16 05:38:52;;;;;;;6.77;3.13;;;;;;;11.62;99.54;101177.34;4950755;28;20279;-74
2022/10/16 05:41:21;;;;;;;5.13;3.27;;;;;;;11.59;99.94;101182.38;4951124;29;20685;-74
2022/10/16 05:43:47;;;;;;;7.27;3.60;;;;;;;11.59;99.85;101188.41;4951552;28;20189;-74
2022/10/16 05:46:13;;;;;;;7.57;3.97;;;;;;;11.61;100.00;101176.47;4946333;28;20213;-74
2022/10/16 05:48:39;;;;;;;4.17;2.87;;;;;;;11.61;100.00;101175.63;4948797;28;20200;-74
2022/10/16 05:51:11;;;;;;;5.23;3.57;;;;;;;11.63;99.95;101179.06;4948724;29;20243;-74
2022/10/16 05:53:37;;;;;;;7.67;3.50;;;;;;;11.64;100.00;101171.41;4951022;29;20267;-74
2022/10/16 05:56:04;;;;;;;5.93;3.30;;;;;;;11.64;100.00;101180.81;4963255;28;20244;-73
2022/10/16 05:58:32;;;;;;;5.67;3.37;;;;;;;11.61;100.00;101176.47;4948305;28;20241;-73
2022/10/16 06:01:00;;;;;;;9.87;3.50;;;;;;;11.62;100.00;101183.31;4951888;28;20215;-74
2022/10/16 06:03:26;;;;;;;6.13;3.30;;;;;;;11.64;100.00;101185.94;4951730;28;20220;-75
2022/10/16 06:05:52;;;;;;;7.63;3.80;;;;;;;11.63;100.00;101185.09;4950702;29;20213;-74
2022/10/16 06:08:19;;;;;;;4.53;3.70;;;;;;;11.64;100.00;101194.50;4950385;28;20208;-75
2022/10/16 06:10:45;;;;;;;7.13;3.73;;;;;;;11.66;100.00;101189.41;4946997;29;20319;-74
2022/10/16 06:13:12;;;;;;;6.63;3.43;;;;;;;11.66;100.00;101197.09;4950669;29;20250;-74
2022/10/16 06:15:41;;;;;;;8.23;3.50;;;;;;;11.65;100.00;101196.22;4948369;29;20192;-74
2022/10/16 06:18:07;;;;;;;8.00;3.57;;;;;;;11.66;100.00;101194.53;4950993;29;20210;-74
2022/10/16 06:20:33;;;;;;;5.90;3.10;;;;;;;11.64;100.00;101191.94;4951682;28;20263;-74
2022/10/16 06:22:58;;;;;;;5.13;3.57;;;;;;;11.66;100.00;101205.66;4951866;28;20216;-75
2022/10/16 06:25:23;;;;;;;5.83;3.50;;;;;;;11.65;100.00;101200.47;4951908;28;20292;-74
2022/10/16 06:27:49;;;;;;;6.83;3.70;;;;;;;11.64;100.00;101204.75;4951764;28;20204;-74
2022/10/16 06:30:14;;;;;;;5.33;3.73;;;;;;;11.65;100.00;101210.75;4951297;28;20213;-75
2022/10/16 06:32:40;;;;;;;5.20;3.67;;;;;;;11.66;100.00;101210.78;4949702;28;20205;-74
2022/10/16 06:35:06;;;;;;;7.73;3.83;;;;;;;11.70;100.00;101211.72;4951964;28;20189;-75
2022/10/16 06:37:31;;;;;;;8.00;3.73;;;;;;;11.72;100.00;101222.88;4951713;28;20674;-75
2022/10/16 06:39:56;;;;;;;8.73;3.83;;;;;;;11.76;100.00;101214.41;4950623;29;20214;-75
2022/10/16 06:42:22;;;;;;;5.70;4.27;;;;;;;11.73;100.00;101214.34;4950434;29;20220;-74
2022/10/16 06:44:47;;;;;;;7.57;3.87;;;;;;;11.74;100.00;101214.38;4951470;28;20296;-75
2022/10/16 06:47:13;;;;;;;6.47;3.93;;;;;;;11.78;100.00;101217.84;4936616;29;20196;-74
2022/10/16 06:49:39;;;;;;;5.83;4.10;;;;;;;11.81;100.00;101228.19;4949886;29;20209;-75
2022/10/16 06:52:05;;;;;;;7.63;3.97;;;;;;;11.85;100.00;101235.97;4951755;28;20645;-75
2022/10/16 06:54:30;;;;;;;11.23;4.33;;;;;;;11.87;100.00;101236.88;4930182;28;20359;-74
2022/10/16 06:56:56;;;;;;;7.47;3.70;;;;;;;11.88;100.00;101248.00;4922915;28;20185;-74
2022/10/16 06:59:22;;;;;;;5.90;4.03;;;;;;;11.96;100.00;101241.31;4933198;28;20284;-74
2022/10/16 07:01:48;;;;;;;5.83;4.00;;;;;;;12.04;100.00;101250.94;4950044;28;20229;-74
2022/10/16 07:04:13;;;;;;;7.33;4.23;;;;;;;12.13;100.00;101247.66;4945702;29;20267;-74
2022/10/16 07:06:39;;;;;;;8.90;4.33;;;;;;;12.23;100.00;101249.56;4950344;29;20232;-75
2022/10/16 07:09:08;;;;;;;7.73;4.00;;;;;;;12.38;100.00;101245.59;4947823;28;20200;-74
2022/10/16 07:11:34;;;;;;;4.40;3.67;;;;;;;12.53;100.00;101247.59;4954250;28;20552;-75
2022/10/16 07:14:00;;;;;;;7.50;3.90;;;;;;;12.66;100.00;101249.50;4948002;28;20200;-74
2022/10/16 07:16:28;;;;;;;5.67;3.83;;;;;;;12.71;99.25;101258.16;4953350;28;20565;-74
2022/10/16 07:18:59;;;;;;;4.63;3.80;;;;;;;12.85;98.53;101247.28;4954316;29;20221;-75
2022/10/16 07:21:26;;;;;;;6.93;3.97;;;;;;;13.00;98.51;101254.44;4949851;29;20221;-74
2022/10/16 07:23:52;;;;;;;8.37;3.67;;;;;;;13.07;98.00;101263.94;4947158;29;20229;-74
2022/10/16 07:26:18;;;;;;;4.23;3.50;;;;;;;13.26;97.25;101272.84;4948366;28;20689;-73
2022/10/16 07:28:44;;;;;;;6.23;3.27;;;;;;;13.26;97.24;101271.09;4950950;28;20193;-75
2022/10/16 07:31:13;;;;;;;5.83;3.67;;;;;;;13.28;97.18;101272.00;4953609;29;20725;-75
2022/10/16 07:33:41;;;;;;;5.13;3.27;;;;;;;13.26;96.62;101278.81;4954366;28;20207;-75
2022/10/16 07:36:07;;;;;;;5.57;3.40;;;;;;;13.30;96.98;101280.59;4950694;28;20244;-74
2022/10/16 07:38:33;;;;;;;4.80;3.37;;;;;;;13.59;96.53;101287.06;4952958;29;20659;-75
2022/10/16 07:41:04;;;;;;;4.20;2.97;;;;;;;13.66;95.57;101290.56;4953382;29;20220;-74
2022/10/16 07:43:30;;;;;;;4.70;3.17;;;;;;;13.73;95.41;101301.00;4953446;28;20824;-74
2022/10/16 07:45:56;;;;;;;5.40;3.50;;;;;;;13.96;94.99;101301.28;4952612;28;20245;-74
2022/10/16 07:48:22;;;;;;;6.40;2.80;;;;;;;14.11;94.32;101298.91;4954905;28;20201;-74
2022/10/16 07:50:48;;;;;;;4.50;2.97;;;;;;;14.26;93.45;101304.25;4964975;28;20209;-74
2022/10/16 07:53:14;;;;;;;6.70;2.87;;;;;;;14.56;91.98;101308.06;4953639;29;20196;-74
2022/10/16 07:55:39;;;;;;;5.60;2.83;;;;;;;14.75;91.12;101317.72;4954766;28;20185;-74
2022/10/16 07:58:05;;;;;;;4.23;2.83;;;;;;;14.98;89.96;101307.63;4953532;28;20236;-74
2022/10/16 08:00:31;;;;;;;7.70;3.07;;;;;;;15.07;90.15;101297.38;4954808;28;20296;-74
2022/10/16 08:03:01;;;;;;;4.77;2.60;;;;;;;15.27;89.48;101301.84;4953337;29;20782;-74
2022/10/16 08:05:28;;;;;;;6.97;2.63;;;;;;;15.42;88.64;101308.88;4954204;28;20256;-74
2022/10/16 08:07:53;;;;;;;2.90;2.03;;;;;;;15.88;86.13;101298.00;4953626;29;20261;-74
2022/10/16 08:10:21;;;;;;;6.30;2.50;;;;;;;16.01;85.96;101304.91;4953174;28;20220;-72
2022/10/16 08:12:46;;;;;;;3.70;2.27;;;;;;;15.95;85.54;101305.78;4950275;28;20208;-74
2022/10/16 08:15:12;;;;;;;5.00;2.43;;;;;;;16.07;84.88;101308.41;4945434;28;20197;-74
2022/10/16 08:17:37;;;;;;;3.90;2.00;;;;;;;15.83;85.83;101303.13;4953809;28;20268;-74
2022/10/16 08:20:04;;;;;;;4.33;1.97;;;;;;;15.66;86.31;101316.78;4952127;28;20225;-74
2022/10/16 08:22:29;;;;;;;3.13;2.40;;;;;;;15.49;86.50;101321.84;4953216;28;20202;-74
2022/10/16 08:24:54;;;;;;;2.93;2.07;;;;;;;15.48;87.29;101325.25;4953865;28;20220;-74
2022/10/16 08:27:20;;;;;;;4.53;2.43;;;;;;;15.59;86.99;101325.34;4952591;29;20197;-74
2022/10/16 08:29:46;;;;;;;4.47;2.33;;;;;;;15.89;85.46;101334.13;4948982;29;20209;-75
2022/10/16 08:32:11;;;;;;;4.13;2.00;;;;;;;15.86;85.51;101333.25;4953702;28;20272;-75
2022/10/16 08:34:37;;;;;;;3.97;2.43;;;;;;;16.14;84.81;101332.53;4947624;28;20218;-74
2022/10/16 08:37:02;;;;;;;3.30;1.87;;;;;;;16.13;84.25;101333.41;4974699;28;20224;-75
2022/10/16 08:39:28;;;;;;;5.50;1.80;;;;;;;16.31;83.75;101334.34;4953890;28;20236;-75
2022/10/16 08:42:07;;;;;;;2.33;1.70;;;;;;;16.55;82.90;101328.44;4952286;29;20181;-74
2022/10/16 08:44:41;;;;;;;3.50;1.70;;;;;;;16.79;81.56;101324.19;4952718;29;20188;-74
2022/10/16 08:47:19;;;;;;;2.35;1.95;;;;;;;17.85;77.78;101327.63;4949486;28;20204;-71
2022/10/16 08:49:59;;;;;;;4.43;1.60;;;;;;;17.65;78.43;101326.81;4946873;29;20297;-74
2022/10/16 08:52:30;;;;;;;3.97;1.40;;;;;;;19.09;72.12;101321.88;4946877;28;20287;-75
2022/10/16 08:54:56;;;;;;;3.50;1.60;;;;;;;19.97;68.46;101322.78;4953122;28;20189;-74
2022/10/16 08:57:24;;;;;;;2.08;1.20;;;;;;;19.96;66.04;101325.41;4953076;28;20189;-74
2022/10/16 08:59:50;;;;;;;1.60;1.50;;;;;;;18.40;72.58;101349.94;4953061;28;20212;-74
2022/10/16 09:02:26;;;;;;;2.27;1.50;;;;;;;18.24;72.97;101338.75;4952256;28;20259;-74
2022/10/16 09:04:57;;;;;;;3.07;1.77;;;;;;;20.23;66.84;101328.56;4951232;29;20299;-74
2022/10/16 09:07:51;;;;;;;6.57;1.50;;;;;;;21.85;59.72;101322.63;4952777;28;20193;-75
2022/10/16 09:10:54;;;;;;;2.78;1.25;;;;;;;22.96;56.13;101319.38;4948484;29;20296;-75
2022/10/16 09:13:43;;;;;;;2.78;1.40;;;;;;;22.50;55.90;101321.28;4950804;29;20260;-75
2022/10/16 09:16:30;;;;;;;2.22;1.40;;;;;;;24.18;52.53;101314.47;4949741;29;20227;-75
2022/10/16 09:19:19;;;;;;;1.83;1.15;;;;;;;22.77;54.56;101328.53;4945959;29;20201;-77
2022/10/16 09:21:47;;;;;;;1.70;1.27;;;;;;;23.03;54.08;101328.78;4952494;28;20199;-76
2022/10/16 09:24:18;;;;;;;2.00;1.30;;;;;;;23.72;52.02;101313.97;4951584;29;20192;-76
2022/10/16 09:26:45;;;;;;;2.55;1.40;;;;;;;23.74;51.21;101320.88;4951384;29;20700;-75
2022/10/16 09:29:15;;;;;;;2.50;1.40;;;;;;;23.65;52.19;101326.38;4951624;28;20248;-75
2022/10/16 09:31:42;;;;;;;1.85;1.38;;;;;;;24.57;50.54;101322.00;4952418;28;20296;-75
2022/10/16 09:34:24;;;;;;;2.72;1.55;;;;;;;24.49;48.78;101323.16;4952811;28;20217;-75
2022/10/16 09:36:51;;;;;;;1.67;1.48;;;;;;;25.56;46.89;101329.28;4952579;28;20720;-75
2022/10/16 09:39:16;;;;;;;4.25;1.70;;;;;;;24.96;47.57;101326.03;4952524;28;20555;-75
2022/10/16 09:41:44;;;;;;;3.83;1.27;;;;;;;25.37;46.81;101335.22;4935117;29;20205;-75
2022/10/16 09:44:29;;;;;;;1.08;0.95;;;;;;;25.34;45.77;101336.19;4949471;28;20243;-76
2022/10/16 09:47:11;;;;;;;2.47;1.20;;;;;;;26.24;45.55;101337.41;4950495;28;20217;-75
2022/10/16 09:49:37;;;;;;;2.60;1.20;;;;;;;25.62;45.51;101347.47;4950790;28;20248;-74
2022/10/16 09:52:12;;;;;;;3.47;1.30;;;;;;;24.99;46.41;101346.03;4937306;29;20280;-74
2022/10/16 09:54:49;;;;;;;1.95;1.10;;;;;;;25.45;45.06;101349.78;4950779;29;20725;-76
2022/10/16 09:57:15;;;;;;;1.65;1.40;;;;;;;26.43;42.87;101351.56;4946015;29;20256;-76
2022/10/16 09:59:54;;;;;;;3.05;1.23;;;;;;;25.70;43.47;101357.69;4952130;28;20212;-75
2022/10/16 10:02:30;;;;;;;1.60;1.20;;;;;;;26.43;42.68;101344.50;4945372;28;20307;-75
2022/10/16 10:04:56;;;;;;;2.80;0.90;;;;;;;25.86;43.29;101348.38;4952095;28;20551;-75
2022/10/16 10:07:26;;;;;;;3.22;1.17;;;;;;;27.38;41.11;101340.75;4948381;28;20200;-76
2022/10/16 10:09:53;;;;;;;1.10;1.00;;;;;;;28.36;39.13;101335.50;4952370;28;20209;-75
2022/10/16 10:12:31;;;;;;;2.03;1.40;;;;;;;28.02;38.81;101337.97;4951408;28;20201;-75
2022/10/16 10:15:03;;;;;;;2.33;1.10;;;;;;;28.31;38.86;101355.09;4950377;28;20678;-75
2022/10/16 10:17:29;;;;;;;1.27;1.10;;;;;;;28.82;37.39;101350.94;4947494;29;20177;-75
2022/10/16 10:20:00;;;;;;;2.35;1.30;;;;;;;27.34;39.86;101363.72;4952054;28;20578;-75
2022/10/16 10:22:45;;;;;;;1.38;0.95;;;;;;;30.32;35.70;101346.81;4947038;29;20521;-76
2022/10/16 10:25:11;;;;;;;5.38;1.27;;;;;;;30.78;34.30;101353.97;4944712;29;20209;-75
2022/10/16 10:28:01;;;;;;;3.33;1.00;;;;;;;29.61;35.62;101358.50;4947544;29;20821;-74
2022/10/16 10:30:51;;;;;;;5.30;1.00;;;;;;;30.10;34.78;101362.94;4944785;29;20701;-76
2022/10/16 10:33:55;;;;;;;2.25;1.23;;;;;;;29.07;36.01;101354.16;4945865;29;20188;-76
2022/10/16 10:36:34;;;;;;;2.10;1.30;;;;;;;28.72;36.52;101370.75;4952078;28;20197;-75
2022/10/16 10:39:04;;;;;;;1.73;0.98;;;;;;;30.64;33.64;101356.50;4952097;28;20527;-75
2022/10/16 10:41:40;;;;;;;3.33;1.00;;;;;;;29.31;33.99;101376.69;4950568;29;20196;-76
2022/10/16 10:44:52;;;;;;;2.03;1.10;;;;;;;28.10;36.17;101372.72;4949839;28;20271;-76
2022/10/16 10:47:47;;;;;;;2.38;1.20;;;;;;;31.51;31.46;101370.03;4949235;29;20554;-75
2022/10/16 10:50:51;;;;;;;2.00;1.10;;;;;;;31.35;31.39;101370.06;4963535;28;20258;-75
2022/10/16 10:53:50;;;;;;;1.95;1.20;;;;;;;29.80;33.16;101373.31;4938470;29;20700;-75
2022/10/16 10:56:22;;;;;;;1.40;0.90;;;;;;;25.23;40.25;101401.19;4951318;29;20224;-75
2022/10/16 10:59:07;;;;;;;3.10;1.05;;;;;;;29.85;33.80;101397.72;4951800;28;20223;-75
2022/10/16 11:02:04;;;;;;;2.90;1.38;;;;;;;27.76;36.59;101401.41;4951540;28;20189;-76
2022/10/16 11:04:54;;;;;;;3.85;1.20;;;;;;;26.22;38.84;101410.13;4942796;29;20271;-75
2022/10/16 11:07:27;;;;;;;2.22;1.05;;;;;;;26.81;38.25;101403.56;4951034;29;20189;-75
2022/10/16 11:09:59;;;;;;;2.88;1.17;;;;;;;24.29;43.50;101412.75;4950353;28;20248;-75
2022/10/16 11:12:29;;;;;;;2.47;1.15;;;;;;;23.23;44.84;101415.47;4950930;28;20663;-76
2022/10/16 11:14:55;;;;;;;4.93;1.05;;;;;;;28.46;34.45;101394.00;4950342;29;20204;-75
2022/10/16 11:17:30;;;;;;;4.13;1.33;;;;;;;30.90;31.54;101396.50;4951617;28;20177;-76
2022/10/16 11:20:05;;;;;;;2.63;1.23;;;;;;;29.53;34.13;101401.09;4949989;29;20220;-76
2022/10/16 11:22:43;;;;;;;2.95;1.00;;;;;;;29.88;32.65;101397.56;4951338;28;20200;-76
2022/10/16 11:25:23;;;;;;;1.90;1.00;;;;;;;31.29;31.26;101393.41;4944002;29;20196;-76
2022/10/16 11:27:56;;;;;;;2.80;1.35;;;;;;;32.36;30.48;101383.41;4951341;28;20197;-76
2022/10/16 11:30:28;;;;;;;4.13;1.25;;;;;;;32.80;28.57;101385.94;4949218;28;20726;-76
2022/10/16 11:33:12;;;;;;;2.00;1.00;;;;;;;31.67;30.05;101390.25;4945960;29;20240;-76
2022/10/16 11:36:05;;;;;;;2.25;1.20;;;;;;;33.41;28.52;101395.16;4950724;28;20207;-75
2022/10/16 11:38:54;;;;;;;1.70;1.10;;;;;;;32.65;28.67;101381.59;4949916;29;20194;-75